createdAt,value
2022-11-27T00:01:29.637Z,9.30
2022-11-27T00:03:57.292Z,12.30
2022-11-27T00:06:26.851Z,10.70
2022-11-27T00:08:55.955Z,7.35
2022-11-27T00:11:27.575Z,7.07
2022-11-27T00:13:54.889Z,7.10
2022-11-27T00:16:23.526Z,11.82
2022-11-27T00:18:51.382Z,12.35
2022-11-27T00:21:26.877Z,11.65
2022-11-27T00:23:55.812Z,8.02
2022-11-27T00:26:23.555Z,8.30
2022-11-27T00:28:51.113Z,8.07
2022-11-27T00:31:20.846Z,7.00
2022-11-27T00:33:48.412Z,9.73
2022-11-27T00:36:16.479Z,6.82
2022-11-27T00:38:43.565Z,8.13
2022-11-27T00:41:14.614Z,9.93
2022-11-27T00:43:45.619Z,8.45
2022-11-27T00:46:17.400Z,7.68
2022-11-27T00:48:45.241Z,10.23
2022-11-27T00:51:18.920Z,6.28
2022-11-27T00:53:46.605Z,11.40
2022-11-27T00:56:19.764Z,9.18
2022-11-27T00:58:47.605Z,8.27
2022-11-27T01:01:18.948Z,11.63
2022-11-27T01:03:47.121Z,6.47
2022-11-27T01:06:14.961Z,12.23
2022-11-27T01:08:42.553Z,9.82
2022-11-27T01:11:39.959Z,7.32
2022-11-27T01:14:11.059Z,6.75
2022-11-27T01:16:42.739Z,10.98
2022-11-27T01:19:12.842Z,8.57
2022-11-27T01:21:40.010Z,8.52
2022-11-27T01:24:08.030Z,10.20
2022-11-27T01:26:35.029Z,7.88
2022-11-27T01:29:02.375Z,14.82
2022-11-27T01:31:31.847Z,11.43
2022-11-27T01:34:02.046Z,13.30
2022-11-27T01:36:29.928Z,10.80
2022-11-27T01:38:57.103Z,10.02
2022-11-27T01:41:30.483Z,11.63
2022-11-27T01:44:00.171Z,21.03
2022-11-27T01:46:45.695Z,17.33
2022-11-27T01:49:21.145Z,15.95
2022-11-27T01:52:02.418Z,12.25
2022-11-27T01:54:39.446Z,12.68
2022-11-27T01:57:22.619Z,13.07
2022-11-27T01:59:50.977Z,9.88
2022-11-27T02:02:18.212Z,12.52
2022-11-27T02:04:45.521Z,12.10
2022-11-27T02:07:12.691Z,12.63
2022-11-27T02:09:40.260Z,15.45
2022-11-27T02:12:25.436Z,15.32
2022-11-27T02:15:04.395Z,18.70
2022-11-27T02:17:36.798Z,18.50
2022-11-27T02:20:24.204Z,14.90
2022-11-27T02:23:31.654Z,14.52
2022-11-27T02:26:08.752Z,17.35
2022-11-27T02:29:12.207Z,15.93
2022-11-27T02:32:06.766Z,16.65
2022-11-27T02:34:45.896Z,16.05
2022-11-27T02:37:15.727Z,18.35
2022-11-27T02:40:13.746Z,18.17
2022-11-27T02:42:54.231Z,14.82
2022-11-27T02:45:49.477Z,20.55
2022-11-27T02:48:24.314Z,15.43
2022-11-27T02:50:53.863Z,18.58
2022-11-27T02:53:32.346Z,22.60
2022-11-27T02:56:00.726Z,23.27
2022-11-27T02:58:29.830Z,20.23
2022-11-27T03:00:58.168Z,19.70
2022-11-27T03:03:30.001Z,26.05
2022-11-27T03:06:02.151Z,19.90
2022-11-27T03:08:35.072Z,18.25
2022-11-27T03:11:06.981Z,16.38
2022-11-27T03:13:42.333Z,24.95
2022-11-27T03:16:12.559Z,23.55
2022-11-27T03:19:26.482Z,17.85
2022-11-27T03:22:02.061Z,19.88
2022-11-27T03:24:30.399Z,19.77
2022-11-27T03:27:01.554Z,22.20
2022-11-27T03:29:35.384Z,27.17
2022-11-27T03:32:03.780Z,23.20
2022-11-27T03:34:31.948Z,18.83
2022-11-27T03:36:58.967Z,20.33
2022-11-27T03:39:27.237Z,18.55
2022-11-27T03:42:10.153Z,22.33
2022-11-27T03:45:02.236Z,21.48
2022-11-27T03:47:32.019Z,25.13
2022-11-27T03:50:13.949Z,24.27
2022-11-27T03:52:53.061Z,20.63
2022-11-27T03:56:06.787Z,21.45
2022-11-27T03:58:41.442Z,15.00
2022-11-27T04:01:13.041Z,17.48
2022-11-27T04:03:40.182Z,18.70
2022-11-27T04:06:07.335Z,19.75
2022-11-27T04:08:34.639Z,21.38
2022-11-27T04:11:01.682Z,17.88
2022-11-27T04:13:28.762Z,16.83
2022-11-27T04:15:55.823Z,19.65
2022-11-27T04:18:22.903Z,21.83
2022-11-27T04:20:49.921Z,18.55
2022-11-27T04:23:16.981Z,18.90
2022-11-27T04:25:44.038Z,24.65
2022-11-27T04:28:11.231Z,19.27
2022-11-27T04:30:38.289Z,23.30
2022-11-27T04:33:05.465Z,18.25
2022-11-27T04:35:32.453Z,24.25
2022-11-27T04:37:59.988Z,17.88
2022-11-27T04:40:26.988Z,18.80
2022-11-27T04:42:54.081Z,22.95
2022-11-27T04:45:21.108Z,25.92
2022-11-27T04:47:48.363Z,18.67
2022-11-27T04:50:15.496Z,19.15
2022-11-27T04:52:42.593Z,19.48
2022-11-27T04:55:10.077Z,16.13
2022-11-27T04:57:37.440Z,15.02
2022-11-27T05:00:05.837Z,19.70
2022-11-27T05:02:33.152Z,20.98
2022-11-27T05:05:00.347Z,20.02
2022-11-27T05:07:27.905Z,21.27
2022-11-27T05:09:55.007Z,18.38
2022-11-27T05:12:22.083Z,17.52
2022-11-27T05:14:49.106Z,17.67
2022-11-27T05:17:16.146Z,20.13
2022-11-27T05:19:43.230Z,18.58
2022-11-27T05:22:10.280Z,16.73
2022-11-27T05:24:37.551Z,19.15
2022-11-27T05:27:04.728Z,14.85
2022-11-27T05:29:31.904Z,18.85
2022-11-27T05:31:59.020Z,21.25
2022-11-27T05:34:26.045Z,19.42
2022-11-27T05:36:53.101Z,18.30
2022-11-27T05:39:20.160Z,18.30
2022-11-27T05:41:47.175Z,15.32
2022-11-27T05:44:15.482Z,18.38
2022-11-27T05:46:45.951Z,16.42
2022-11-27T05:49:15.296Z,18.30
2022-11-27T05:51:49.205Z,14.98
2022-11-27T05:54:18.517Z,19.75
2022-11-27T05:56:45.704Z,16.48
2022-11-27T05:59:12.883Z,17.58
2022-11-27T06:01:40.105Z,18.35
2022-11-27T06:04:07.169Z,20.73
2022-11-27T06:06:34.162Z,18.38
2022-11-27T06:09:01.873Z,17.15
2022-11-27T06:11:29.209Z,21.35
2022-11-27T06:13:56.235Z,17.33
2022-11-27T06:16:24.541Z,16.45
2022-11-27T06:18:55.805Z,14.75
2022-11-27T06:21:24.305Z,18.13
2022-11-27T06:23:55.723Z,17.13
2022-11-27T06:26:28.238Z,19.52
2022-11-27T06:28:56.648Z,21.30
2022-11-27T06:31:26.761Z,15.88
2022-11-27T06:33:55.635Z,18.40
2022-11-27T06:36:27.326Z,19.35
2022-11-27T06:38:54.395Z,22.40
2022-11-27T06:41:24.246Z,23.52
2022-11-27T06:43:51.587Z,18.67
2022-11-27T06:46:20.579Z,16.25
2022-11-27T06:48:50.406Z,15.20
2022-11-27T06:51:23.053Z,14.38
2022-11-27T06:53:51.395Z,15.75
2022-11-27T06:56:20.570Z,13.45
2022-11-27T06:58:50.721Z,14.68
2022-11-27T07:01:18.238Z,13.75
2022-11-27T07:03:45.469Z,14.07
2022-11-27T07:06:16.151Z,15.45
2022-11-27T07:08:43.545Z,18.60
2022-11-27T07:11:18.477Z,15.70
2022-11-27T07:13:46.946Z,16.70
2022-11-27T07:16:15.299Z,12.85
2022-11-27T07:18:50.764Z,11.57
2022-11-27T07:21:18.515Z,16.00
2022-11-27T07:23:46.108Z,13.60
2022-11-27T07:26:18.785Z,18.00
2022-11-27T07:28:46.361Z,12.23
2022-11-27T07:31:15.419Z,17.27
2022-11-27T07:33:42.587Z,13.25
2022-11-27T07:36:17.563Z,18.55
2022-11-27T07:38:45.528Z,20.55
2022-11-27T07:41:13.418Z,15.80
2022-11-27T07:43:41.738Z,14.73
2022-11-27T07:46:13.262Z,14.75
2022-11-27T07:48:40.388Z,14.07
2022-11-27T07:51:09.797Z,13.40
2022-11-27T07:53:38.336Z,13.27
2022-11-27T07:56:10.522Z,15.52
2022-11-27T07:58:37.894Z,11.35
2022-11-27T08:01:09.880Z,14.98
2022-11-27T08:03:37.404Z,11.65
2022-11-27T08:06:05.307Z,15.27
2022-11-27T08:08:33.297Z,18.23
2022-11-27T08:11:00.267Z,12.88
2022-11-27T08:13:27.324Z,11.82
2022-11-27T08:15:54.432Z,14.32
2022-11-27T08:18:21.500Z,12.98
2022-11-27T08:20:48.527Z,11.02
2022-11-27T08:23:15.565Z,12.48
2022-11-27T08:25:42.554Z,18.40
2022-11-27T08:28:09.714Z,16.23
2022-11-27T08:30:36.752Z,14.98
2022-11-27T08:33:03.911Z,12.35
2022-11-27T08:35:31.026Z,13.25
2022-11-27T08:37:58.540Z,12.70
2022-11-27T08:40:25.764Z,13.65
2022-11-27T08:42:53.001Z,11.38
2022-11-27T08:45:20.409Z,11.82
2022-11-27T08:47:47.620Z,12.75
2022-11-27T08:50:15.029Z,16.08
2022-11-27T08:52:42.154Z,15.25
2022-11-27T08:55:09.597Z,12.80
2022-11-27T08:57:36.838Z,11.20
2022-11-27T09:00:05.722Z,12.80
2022-11-27T09:02:34.586Z,13.57
2022-11-27T09:05:03.113Z,13.20
2022-11-27T09:07:30.429Z,14.75
2022-11-27T09:10:01.008Z,14.20
2022-11-27T09:12:29.207Z,12.73
2022-11-27T09:14:56.440Z,15.43
2022-11-27T09:17:23.877Z,13.50
2022-11-27T09:19:51.084Z,14.00
2022-11-27T09:22:18.953Z,14.18
2022-11-27T09:24:46.528Z,15.40
2022-11-27T09:27:13.793Z,13.23
2022-11-27T09:29:41.130Z,15.55
2022-11-27T09:32:08.402Z,12.75
2022-11-27T09:34:37.672Z,12.98
2022-11-27T09:37:05.463Z,14.52
2022-11-27T09:39:34.355Z,14.07
2022-11-27T09:42:06.520Z,14.43
2022-11-27T09:44:45.857Z,16.48
2022-11-27T09:47:28.589Z,13.85
2022-11-27T09:50:01.096Z,12.00
2022-11-27T09:52:44.392Z,13.27
2022-11-27T09:55:32.900Z,11.00
2022-11-27T09:58:11.973Z,12.38
2022-11-27T10:00:39.212Z,12.48
2022-11-27T10:03:15.788Z,12.05
2022-11-27T10:05:52.236Z,11.55
2022-11-27T10:08:49.919Z,10.60
2022-11-27T10:11:35.646Z,11.55
2022-11-27T10:14:06.022Z,12.10
2022-11-27T10:16:44.725Z,10.05
2022-11-27T10:19:31.114Z,15.23
2022-11-27T10:22:16.606Z,13.15
2022-11-27T10:24:55.928Z,15.80
2022-11-27T10:28:12.550Z,10.70
2022-11-27T10:30:53.775Z,10.90
2022-11-27T10:33:43.802Z,9.68
2022-11-27T10:36:27.368Z,12.98
2022-11-27T10:38:56.948Z,10.05
2022-11-27T10:44:33.509Z,10.73
2022-11-27T10:47:07.167Z,13.75
2022-11-27T10:49:38.710Z,13.63
2022-11-27T10:52:05.843Z,10.88
2022-11-27T10:54:37.576Z,10.75
2022-11-27T10:57:16.580Z,12.00
2022-11-27T11:00:02.132Z,9.45
2022-11-27T11:02:35.481Z,12.98
2022-11-27T11:05:32.839Z,13.27
2022-11-27T11:08:05.239Z,9.57
2022-11-27T11:10:43.218Z,8.52
2022-11-27T11:13:28.061Z,9.45
2022-11-27T11:15:59.462Z,10.05
2022-11-27T11:18:35.228Z,9.75
2022-11-27T11:21:07.829Z,12.40
2022-11-27T11:23:38.424Z,9.45
2022-11-27T11:26:15.549Z,6.90
2022-11-27T11:28:50.870Z,8.68
2022-11-27T11:31:21.505Z,11.55
2022-11-27T11:33:54.678Z,11.80
2022-11-27T11:36:21.973Z,9.25
2022-11-27T11:38:49.698Z,11.80
2022-11-27T11:41:18.953Z,10.48
2022-11-27T11:44:03.130Z,10.05
2022-11-27T11:46:33.855Z,8.13
2022-11-27T11:49:07.060Z,13.48
2022-11-27T11:52:03.351Z,8.45
2022-11-27T11:54:56.094Z,7.53
2022-11-27T11:57:58.260Z,10.57
2022-11-27T12:00:58.133Z,9.07
2022-11-27T12:03:35.201Z,8.55
2022-11-27T12:06:20.580Z,9.95
2022-11-27T12:08:54.712Z,5.90
2022-11-27T12:11:38.802Z,7.25
2022-11-27T12:14:18.609Z,7.32
2022-11-27T12:16:59.262Z,8.77
2022-11-27T12:19:41.915Z,8.13
2022-11-27T12:22:38.184Z,9.93
2022-11-27T12:25:16.948Z,6.07
2022-11-27T12:28:14.250Z,7.07
2022-11-27T12:30:59.957Z,8.88
2022-11-27T12:33:48.629Z,6.15
2022-11-27T12:36:35.890Z,5.57
2022-11-27T12:39:02.831Z,8.43
2022-11-27T12:41:48.067Z,6.25
2022-11-27T12:44:47.613Z,7.93
2022-11-27T12:47:25.959Z,7.30
2022-11-27T12:50:14.543Z,7.40
2022-11-27T12:52:46.210Z,9.13
2022-11-27T12:55:15.807Z,5.20
2022-11-27T12:57:48.876Z,3.85
2022-11-27T13:00:22.288Z,4.85
2022-11-27T13:03:21.928Z,7.33
2022-11-27T13:05:52.833Z,6.60
2022-11-27T13:08:30.874Z,7.13
2022-11-27T13:11:05.843Z,8.32
2022-11-27T13:14:07.357Z,4.95
2022-11-27T13:16:46.861Z,6.75
2022-11-27T13:19:43.588Z,7.90
2022-11-27T13:22:22.446Z,10.05
2022-11-27T13:24:49.636Z,6.93
2022-11-27T13:27:24.124Z,6.90
2022-11-27T13:30:09.049Z,5.75
2022-11-27T13:32:47.961Z,6.05
2022-11-27T13:35:31.166Z,6.68
2022-11-27T13:38:19.368Z,4.53
2022-11-27T13:40:53.013Z,6.32
2022-11-27T13:43:35.850Z,6.28
2022-11-27T13:46:09.502Z,7.55
2022-11-27T13:48:40.787Z,8.68
2022-11-27T13:51:10.255Z,5.88
2022-11-27T13:53:42.460Z,3.95
2022-11-27T13:56:10.467Z,7.28
2022-11-27T13:58:40.510Z,4.85
2022-11-27T14:01:17.705Z,4.97
2022-11-27T14:03:45.567Z,6.55
2022-11-27T14:06:32.144Z,6.68
2022-11-27T14:09:02.810Z,5.32
2022-11-27T14:11:32.460Z,4.80
2022-11-27T14:14:00.985Z,6.68
2022-11-27T14:16:34.636Z,6.38
2022-11-27T14:19:04.975Z,7.13
2022-11-27T14:21:42.799Z,7.32
2022-11-27T14:24:35.565Z,7.88
2022-11-27T14:27:15.762Z,6.32
2022-11-27T14:29:43.047Z,7.30
2022-11-27T14:32:14.046Z,8.80
2022-11-27T14:34:42.519Z,5.90
2022-11-27T14:37:27.872Z,6.75
2022-11-27T14:39:55.946Z,6.22
2022-11-27T14:42:34.042Z,6.43
2022-11-27T14:45:09.052Z,6.03
2022-11-27T14:47:38.853Z,4.65
2022-11-27T14:50:07.827Z,6.53
2022-11-27T14:52:35.282Z,4.97
2022-11-27T14:55:03.352Z,6.55
2022-11-27T14:57:31.777Z,5.38
2022-11-27T15:00:15.760Z,5.72
2022-11-27T15:02:43.753Z,5.45
2022-11-27T15:05:30.526Z,5.10
2022-11-27T15:07:59.098Z,4.90
2022-11-27T15:10:32.318Z,8.38
2022-11-27T15:13:01.740Z,8.07
2022-11-27T15:15:34.889Z,6.88
2022-11-27T15:18:08.031Z,4.20
2022-11-27T15:20:43.317Z,7.53
2022-11-27T15:23:26.748Z,6.72
2022-11-27T15:25:59.738Z,7.72
2022-11-27T15:28:43.751Z,5.18
2022-11-27T15:31:35.665Z,8.18
2022-11-27T15:34:07.028Z,6.22
2022-11-27T15:36:44.782Z,8.88
2022-11-27T15:39:21.163Z,4.75
2022-11-27T15:42:10.501Z,6.03
2022-11-27T15:44:39.022Z,8.02
2022-11-27T15:47:07.500Z,7.05
2022-11-27T15:49:34.769Z,5.68
2022-11-27T15:52:01.967Z,7.53
2022-11-27T15:54:31.776Z,6.63
2022-11-27T15:56:58.955Z,5.03
2022-11-27T15:59:27.567Z,6.45
2022-11-27T16:01:55.759Z,8.73
2022-11-27T16:04:23.202Z,6.78
2022-11-27T16:06:50.397Z,6.32
2022-11-27T16:09:17.743Z,6.60
2022-11-27T16:11:45.399Z,7.63
2022-11-27T16:14:13.051Z,6.30
2022-11-27T16:16:40.639Z,8.43
2022-11-27T16:19:08.527Z,10.50
2022-11-27T16:21:36.045Z,5.93
2022-11-27T16:24:06.022Z,6.50
2022-11-27T16:26:33.685Z,7.70
2022-11-27T16:29:03.045Z,5.30
2022-11-27T16:31:30.490Z,5.88
2022-11-27T16:33:57.823Z,7.20
2022-11-27T16:36:25.077Z,6.97
2022-11-27T16:38:54.453Z,10.23
2022-11-27T16:41:23.081Z,8.68
2022-11-27T16:43:52.735Z,8.65
2022-11-27T16:46:26.635Z,7.68
2022-11-27T16:48:54.710Z,6.13
2022-11-27T16:51:28.736Z,8.52
2022-11-27T16:53:58.020Z,6.78
2022-11-27T16:56:27.474Z,6.57
2022-11-27T16:58:59.561Z,6.47
2022-11-27T17:01:32.968Z,6.32
2022-11-27T17:04:01.345Z,6.70
2022-11-27T17:06:30.817Z,7.43
2022-11-27T17:08:59.850Z,7.00
2022-11-27T17:11:29.813Z,7.35
2022-11-27T17:13:59.211Z,6.47
2022-11-27T17:16:26.634Z,6.43
2022-11-27T17:18:54.663Z,7.53
2022-11-27T17:21:26.588Z,7.55
2022-11-27T17:24:02.752Z,6.97
2022-11-27T17:26:31.978Z,8.57
2022-11-27T17:29:00.248Z,8.52
2022-11-27T17:31:32.916Z,6.68
2022-11-27T17:34:00.674Z,6.97
2022-11-27T17:36:36.583Z,7.45
2022-11-27T17:39:06.383Z,6.78
2022-11-27T17:41:36.450Z,8.20
2022-11-27T17:44:05.701Z,6.65
2022-11-27T17:46:34.706Z,7.78
2022-11-27T17:49:03.705Z,7.43
2022-11-27T17:51:33.689Z,6.40
2022-11-27T17:54:02.497Z,7.45
2022-11-27T17:56:30.261Z,7.60
2022-11-27T17:58:57.516Z,6.63
2022-11-27T18:01:28.729Z,7.35
2022-11-27T18:03:57.384Z,4.70
2022-11-27T18:06:24.699Z,11.88
2022-11-27T18:08:52.527Z,7.22
2022-11-27T18:11:26.391Z,7.05
2022-11-27T18:13:54.267Z,4.53
2022-11-27T18:16:31.675Z,7.40
2022-11-27T18:18:59.927Z,8.18
2022-11-27T18:21:28.812Z,6.95
2022-11-27T18:24:22.563Z,6.32
2022-11-27T18:29:34.517Z,6.63
2022-11-27T18:32:01.940Z,6.10
2022-11-27T18:34:29.548Z,6.28
2022-11-27T18:36:59.702Z,8.43
2022-11-27T18:39:27.585Z,6.65
2022-11-27T18:41:55.132Z,6.10
2022-11-27T18:44:22.290Z,7.68
2022-11-27T18:46:49.627Z,5.22
2022-11-27T18:49:16.854Z,6.45
2022-11-27T18:51:44.217Z,5.95
2022-11-27T18:54:11.583Z,6.32
2022-11-27T18:56:38.834Z,6.13
2022-11-27T18:59:07.215Z,4.78
2022-11-27T19:01:41.951Z,7.45
2022-11-27T19:04:11.434Z,6.55
2022-11-27T19:06:42.315Z,6.03
2022-11-27T19:09:11.348Z,6.00
2022-11-27T19:11:39.183Z,6.32
2022-11-27T19:14:06.843Z,5.68
2022-11-27T19:16:42.251Z,7.00
2022-11-27T19:19:30.028Z,6.65
2022-11-27T19:21:57.275Z,6.78
2022-11-27T19:24:24.462Z,5.93
2022-11-27T19:26:51.595Z,5.55
2022-11-27T19:29:19.060Z,7.43
2022-11-27T19:31:46.325Z,6.68
2022-11-27T19:34:14.092Z,8.45
2022-11-27T19:36:42.641Z,6.65
2022-11-27T19:39:14.520Z,6.20
2022-11-27T19:41:43.650Z,6.95
2022-11-27T19:44:12.934Z,7.68
2022-11-27T19:46:40.366Z,8.18
2022-11-27T19:49:13.301Z,7.32
2022-11-27T19:51:41.188Z,6.55
2022-11-27T19:54:10.492Z,10.15
2022-11-27T19:56:40.233Z,9.73
2022-11-27T19:59:07.877Z,6.72
2022-11-27T20:01:35.720Z,7.75
2022-11-27T20:04:04.131Z,8.27
2022-11-27T20:06:31.728Z,8.88
2022-11-27T20:09:01.433Z,7.95
2022-11-27T20:11:34.239Z,9.15
2022-11-27T20:14:04.675Z,7.90
2022-11-27T20:16:33.191Z,8.55
2022-11-27T20:19:02.489Z,8.20
2022-11-27T20:21:29.701Z,8.68
2022-11-27T20:23:57.326Z,7.82
2022-11-27T20:26:27.476Z,6.90
2022-11-27T20:28:55.367Z,7.45
2022-11-27T20:31:28.930Z,7.38
2022-11-27T20:33:58.899Z,8.70
2022-11-27T20:36:26.980Z,6.20
2022-11-27T20:38:57.812Z,9.23
2022-11-27T20:41:25.815Z,8.73
2022-11-27T20:43:58.324Z,9.48
2022-11-27T20:46:26.663Z,8.07
2022-11-27T20:48:55.952Z,9.27
2022-11-27T20:51:28.729Z,7.45
2022-11-27T20:53:58.017Z,7.90
2022-11-27T20:56:25.797Z,8.63
2022-11-27T20:58:53.114Z,7.22
2022-11-27T21:01:26.431Z,10.85
2022-11-27T21:03:55.435Z,6.53
2022-11-27T21:06:25.567Z,10.68
2022-11-27T21:08:53.289Z,8.55
2022-11-27T21:11:25.438Z,9.95
2022-11-27T21:14:00.317Z,7.28
2022-11-27T21:16:31.145Z,8.30
2022-11-27T21:19:02.545Z,8.20
2022-11-27T21:21:30.473Z,8.27
2022-11-27T21:23:57.650Z,6.40
2022-11-27T21:26:25.098Z,9.95
2022-11-27T21:28:52.518Z,8.90
2022-11-27T21:31:22.617Z,6.60
2022-11-27T21:33:52.486Z,10.18
2022-11-27T21:36:21.820Z,7.57
2022-11-27T21:38:49.758Z,7.18
2022-11-27T21:41:17.955Z,7.20
2022-11-27T21:43:46.377Z,7.60
2022-11-27T21:46:19.100Z,7.22
2022-11-27T21:48:47.922Z,7.85
2022-11-27T21:51:16.117Z,9.13
2022-11-27T21:53:45.837Z,6.57
2022-11-27T21:56:15.640Z,11.45
2022-11-27T21:58:42.878Z,9.13
2022-11-27T22:01:13.654Z,9.35
2022-11-27T22:03:42.905Z,5.97
2022-11-27T22:06:18.445Z,8.13
2022-11-27T22:08:48.223Z,8.85
2022-11-27T22:11:21.463Z,10.00
2022-11-27T22:13:49.182Z,9.38
2022-11-27T22:16:21.603Z,6.32
2022-11-27T22:18:49.803Z,9.40
2022-11-27T22:21:17.820Z,8.30
2022-11-27T22:23:45.500Z,5.93
2022-11-27T22:26:18.407Z,8.50
2022-11-27T22:28:48.831Z,9.18
2022-11-27T22:31:21.816Z,10.55
2022-11-27T22:33:49.341Z,12.23
2022-11-27T22:36:30.837Z,7.50
2022-11-27T22:38:59.314Z,7.82
2022-11-27T22:41:28.769Z,8.25
2022-11-27T22:43:56.376Z,9.88
2022-11-27T22:46:42.676Z,9.05
2022-11-27T22:49:13.132Z,9.45
2022-11-27T22:51:40.323Z,10.20
2022-11-27T22:54:10.421Z,8.52
2022-11-27T22:56:37.555Z,9.95
2022-11-27T22:59:31.157Z,7.13
2022-11-27T23:01:54.414Z,9.05
2022-11-27T23:04:21.433Z,7.35
2022-11-27T23:06:48.868Z,8.90
2022-11-27T23:09:18.076Z,8.90
2022-11-27T23:11:45.747Z,9.15
2022-11-27T23:14:15.309Z,7.75
2022-11-27T23:16:42.760Z,8.13
2022-11-27T23:19:11.579Z,8.07
2022-11-27T23:21:39.959Z,8.32
2022-11-27T23:24:09.918Z,12.30
2022-11-27T23:26:37.208Z,12.63
2022-11-27T23:29:05.820Z,8.25
2022-11-27T23:31:35.389Z,8.82
2022-11-27T23:34:07.608Z,8.48
2022-11-27T23:36:36.386Z,7.50
2022-11-27T23:39:06.984Z,9.82
2022-11-27T23:41:34.385Z,11.40
2022-11-27T23:44:02.338Z,7.93
2022-11-27T23:46:30.789Z,9.23
2022-11-27T23:49:00.103Z,10.15
2022-11-27T23:51:32.209Z,12.13
2022-11-27T23:54:00.484Z,11.25
2022-11-27T23:56:30.766Z,9.25
2022-11-27T23:58:59.693Z,10.02
